Terminal Aerodrome Forecast
Issued by NWS Memphis, TN

Home | Current Version | Previous Version | Text Only | Print | Product List | Glossary On
Versions: 1 2 3 4 5 6 7 8 9 10 11 12
000
FTUS44 KMEG 271724
TAFJBR
TAF
KJBR 271724Z 2718/2818 06007KT P6SM FEW050
     FM280100 04003KT P6SM SKC
     FM281600 13005KT P6SM FEW040=

USA.gov is the U.S. government's official web portal to all federal, state and local government web resources and services.